createdAt,value
2022-08-10T00:00:30.868Z,48.56
2022-08-10T00:03:58.798Z,48.50
2022-08-10T00:07:22.830Z,51.06
2022-08-10T00:10:47.835Z,52.54
2022-08-10T00:14:11.881Z,51.63
2022-08-10T00:17:36.883Z,50.67
2022-08-10T00:21:00.880Z,52.09
2022-08-10T00:24:26.819Z,50.91
2022-08-10T00:28:03.172Z,51.89
2022-08-10T00:31:27.810Z,47.19
2022-08-10T00:34:53.873Z,46.85
2022-08-10T00:38:18.795Z,45.95
2022-08-10T00:41:42.848Z,47.04
2022-08-10T00:45:06.846Z,46.50
2022-08-10T00:48:30.810Z,46.63
2022-08-10T00:51:54.904Z,45.18
2022-08-10T00:55:14.458Z,43.75
2022-08-10T00:58:33.877Z,42.18
2022-08-10T01:02:08.825Z,43.73
2022-08-10T01:05:35.955Z,43.76
2022-08-10T01:09:30.826Z,42.58
2022-08-10T01:13:31.909Z,42.84
2022-08-10T01:17:05.854Z,40.02
2022-08-10T01:20:37.900Z,39.39
2022-08-10T01:24:10.851Z,40.61
2022-08-10T01:27:50.890Z,42.51
2022-08-10T01:31:16.808Z,41.87
2022-08-10T01:34:49.888Z,37.25
2022-08-10T01:38:22.841Z,40.45
2022-08-10T01:41:56.867Z,42.10
2022-08-10T01:45:22.840Z,43.94
2022-08-10T01:49:08.892Z,44.61
2022-08-10T01:52:34.981Z,45.93
2022-08-10T01:55:54.503Z,46.54
2022-08-10T01:59:15.874Z,47.35
2022-08-10T02:02:41.840Z,48.00
2022-08-10T02:06:08.941Z,47.14
2022-08-10T02:09:41.942Z,46.28
2022-08-10T02:13:05.925Z,46.53
2022-08-10T02:16:29.861Z,46.84
2022-08-10T02:19:55.919Z,46.65
2022-08-10T02:23:33.878Z,45.60
2022-08-10T02:27:00.051Z,46.38
2022-08-10T02:30:24.866Z,45.72
2022-08-10T02:33:57.141Z,46.37
2022-08-10T02:37:21.875Z,45.74
2022-08-10T02:45:01.818Z,46.94
2022-08-10T02:45:27.222Z,46.03
2022-08-10T02:48:57.893Z,47.41
2022-08-10T02:52:31.901Z,46.75
2022-08-10T02:56:02.946Z,47.93
2022-08-10T02:59:40.393Z,46.21
2022-08-10T03:03:06.975Z,46.36
2022-08-10T03:06:40.940Z,47.20
2022-08-10T03:10:05.886Z,46.30
2022-08-10T03:13:39.939Z,47.49
2022-08-10T03:17:06.905Z,46.34
2022-08-10T03:20:34.466Z,46.96
2022-08-10T03:24:01.927Z,46.20
2022-08-10T03:27:25.862Z,47.41
2022-08-10T03:30:49.945Z,46.70
2022-08-10T03:34:22.307Z,46.53
2022-08-10T03:37:59.089Z,45.56
2022-08-10T03:41:26.902Z,44.20
2022-08-10T03:44:54.960Z,46.43
2022-08-10T03:48:19.945Z,46.21
2022-08-10T03:51:43.964Z,47.42
2022-08-10T03:55:07.967Z,47.45
2022-08-10T03:58:26.568Z,47.93
2022-08-10T04:02:46.061Z,47.40
2022-08-10T04:05:38.532Z,47.87
2022-08-10T04:09:02.931Z,48.09
2022-08-10T04:12:27.038Z,49.21
2022-08-10T04:15:50.995Z,49.83
2022-08-10T04:19:14.931Z,50.33
2022-08-10T04:22:41.982Z,51.02
2022-08-10T04:26:06.893Z,51.03
2022-08-10T04:29:29.945Z,52.30
2022-08-10T04:32:54.952Z,51.86
2022-08-10T04:36:20.925Z,52.87
2022-08-10T04:39:45.011Z,54.66
2022-08-10T04:43:12.940Z,53.48
2022-08-10T04:46:56.234Z,56.16
2022-08-10T04:50:16.984Z,55.70
2022-08-10T04:54:05.496Z,56.28
2022-08-10T04:57:26.964Z,57.32
2022-08-10T05:00:51.050Z,58.05
2022-08-10T05:04:36.776Z,57.73
2022-08-10T05:07:58.974Z,58.46
2022-08-10T05:11:23.810Z,59.20
2022-08-10T05:14:49.012Z,59.55
2022-08-10T05:18:13.953Z,60.39
2022-08-10T05:22:03.621Z,60.84
2022-08-10T05:25:26.915Z,62.05
2022-08-10T05:28:51.962Z,63.24
2022-08-10T05:32:16.955Z,64.23
2022-08-10T05:35:56.824Z,64.40
2022-08-10T05:39:30.569Z,65.13
2022-08-10T05:42:56.958Z,66.92
2022-08-10T05:46:22.005Z,65.46
2022-08-10T05:49:46.026Z,65.87
2022-08-10T05:53:59.590Z,65.69
2022-08-10T05:56:58.315Z,67.16
2022-08-10T06:00:36.865Z,67.44
2022-08-10T06:04:10.066Z,67.58
2022-08-10T06:07:38.127Z,68.24
2022-08-10T06:12:21.912Z,69.79
2022-08-10T06:15:13.103Z,69.63
2022-08-10T06:18:45.953Z,69.26
2022-08-10T06:22:11.033Z,69.32
2022-08-10T06:29:25.019Z,69.73
2022-08-10T06:32:48.977Z,69.35
2022-08-10T06:36:14.996Z,69.65
2022-08-10T06:39:40.025Z,70.41
2022-08-10T06:43:05.054Z,71.30
2022-08-10T06:46:31.971Z,72.75
2022-08-10T06:50:00.161Z,72.96
2022-08-10T06:53:53.998Z,72.01
2022-08-10T06:57:18.452Z,72.99
2022-08-10T07:00:45.043Z,73.49
2022-08-10T07:04:32.967Z,73.64
2022-08-10T07:07:59.001Z,74.33
2022-08-10T07:11:24.070Z,75.12
2022-08-10T07:14:48.961Z,76.37
2022-08-10T07:18:15.002Z,76.98
2022-08-10T07:21:39.972Z,77.24
2022-08-10T07:25:06.909Z,77.88
2022-08-10T07:28:32.012Z,77.07
2022-08-10T07:31:57.886Z,77.10
2022-08-10T07:35:23.021Z,80.16
2022-08-10T07:38:47.026Z,79.95
2022-08-10T07:42:10.980Z,80.02
2022-08-10T07:45:37.064Z,79.52
2022-08-10T07:49:19.017Z,79.57
2022-08-10T07:52:43.078Z,79.68
2022-08-10T07:56:26.007Z,80.25
2022-08-10T07:59:58.057Z,80.27
2022-08-10T08:03:29.039Z,80.12
2022-08-10T08:06:54.057Z,80.44
2022-08-10T08:10:20.034Z,81.28
2022-08-10T08:13:45.070Z,81.90
2022-08-10T08:17:08.988Z,82.85
2022-08-10T08:20:36.019Z,82.80
2022-08-10T08:24:31.779Z,82.97
2022-08-10T08:27:50.020Z,83.20
2022-08-10T08:31:14.009Z,83.48
2022-08-10T08:34:40.045Z,84.46
2022-08-10T08:38:29.535Z,84.03
2022-08-10T08:42:05.067Z,84.06
2022-08-10T08:46:01.386Z,84.60
2022-08-10T08:50:07.690Z,85.13
2022-08-10T08:54:02.071Z,85.92
2022-08-10T08:57:49.990Z,85.55
2022-08-10T09:01:46.146Z,86.50
2022-08-10T09:05:58.562Z,86.56
2022-08-10T09:09:29.664Z,86.23
2022-08-10T09:12:50.190Z,87.03
2022-08-10T09:16:50.012Z,86.84
2022-08-10T09:20:24.117Z,86.15
2022-08-10T09:24:05.208Z,86.82
2022-08-10T09:27:36.125Z,87.09
2022-08-10T09:31:23.126Z,87.58
2022-08-10T09:36:24.975Z,87.01
2022-08-10T09:39:03.008Z,87.96
2022-08-10T09:43:14.155Z,88.21
2022-08-10T09:47:04.072Z,88.09
2022-08-10T09:55:06.070Z,87.67
2022-08-10T09:58:43.052Z,88.39
2022-08-10T10:02:29.024Z,87.03
2022-08-10T10:06:05.111Z,88.63
2022-08-10T10:09:58.096Z,87.66
2022-08-10T10:13:42.240Z,87.77
2022-08-10T10:17:30.051Z,88.76
2022-08-10T10:21:51.396Z,88.00
2022-08-10T10:25:19.771Z,88.27
2022-08-10T10:29:24.814Z,88.26
2022-08-10T10:32:59.343Z,88.46
2022-08-10T10:36:24.073Z,88.49
2022-08-10T10:39:50.233Z,87.78
2022-08-10T10:43:23.063Z,88.01
2022-08-10T10:47:21.047Z,87.66
2022-08-10T10:50:54.067Z,88.84
2022-08-10T10:54:17.129Z,88.48
2022-08-10T10:58:08.060Z,87.85
2022-08-10T11:01:54.140Z,87.53
2022-08-10T11:05:24.103Z,88.81
2022-08-10T11:08:58.068Z,88.72
2022-08-10T11:12:55.226Z,87.79
2022-08-10T11:16:25.097Z,88.37
2022-08-10T11:20:00.279Z,88.19
2022-08-10T11:23:31.082Z,88.23
2022-08-10T11:27:17.371Z,87.82
2022-08-10T11:31:08.101Z,87.76
2022-08-10T11:34:48.170Z,87.33
2022-08-10T11:39:13.646Z,87.89
2022-08-10T11:42:59.114Z,85.71
2022-08-10T11:46:45.062Z,86.83
2022-08-10T11:50:26.180Z,86.05
2022-08-10T11:54:13.068Z,85.90
2022-08-10T11:57:54.250Z,85.89
2022-08-10T12:01:20.132Z,85.80
2022-08-10T12:04:44.077Z,86.78
2022-08-10T12:10:03.448Z,86.18
2022-08-10T12:11:54.132Z,86.25
2022-08-10T12:15:26.561Z,85.83
2022-08-10T12:18:56.106Z,85.73
2022-08-10T12:22:27.125Z,85.33
2022-08-10T12:26:18.156Z,86.02
2022-08-10T12:29:53.072Z,84.44
2022-08-10T12:33:23.148Z,84.59
2022-08-10T12:37:02.104Z,84.82
2022-08-10T12:40:35.470Z,85.65
2022-08-10T12:44:08.907Z,84.18
2022-08-10T12:47:53.156Z,85.02
2022-08-10T12:51:22.080Z,85.31
2022-08-10T12:54:50.144Z,85.31
2022-08-10T12:58:59.194Z,85.63
2022-08-10T13:02:10.596Z,85.79
2022-08-10T13:06:02.667Z,86.25
2022-08-10T13:09:22.209Z,86.07
2022-08-10T13:12:47.374Z,86.72
2022-08-10T13:16:13.126Z,86.41
2022-08-10T13:19:38.654Z,87.52
2022-08-10T13:23:32.126Z,87.43
2022-08-10T13:27:26.158Z,86.82
2022-08-10T13:30:52.167Z,86.80
2022-08-10T13:34:43.766Z,86.89
2022-08-10T13:38:10.103Z,86.53
2022-08-10T13:41:35.177Z,87.14
2022-08-10T13:45:09.159Z,86.17
2022-08-10T13:48:34.126Z,86.79
2022-08-10T13:51:58.533Z,86.96
2022-08-10T13:55:54.285Z,87.03
2022-08-10T13:59:16.315Z,86.97
2022-08-10T14:02:56.170Z,87.33
2022-08-10T14:06:21.161Z,86.91
2022-08-10T14:09:48.139Z,86.69
2022-08-10T14:13:13.161Z,85.78
2022-08-10T14:16:38.217Z,84.59
2022-08-10T14:20:10.607Z,85.46
2022-08-10T14:23:40.193Z,85.62
2022-08-10T14:27:06.183Z,85.84
2022-08-10T14:30:32.194Z,86.30
2022-08-10T14:34:06.189Z,86.23
2022-08-10T14:37:45.102Z,85.93
2022-08-10T14:41:12.157Z,86.00
2022-08-10T14:44:36.173Z,85.25
2022-08-10T14:48:03.795Z,85.70
2022-08-10T14:51:44.041Z,85.72
2022-08-10T14:55:19.529Z,85.32
2022-08-10T14:58:58.926Z,85.04
2022-08-10T15:02:38.720Z,85.44
2022-08-10T15:06:05.182Z,85.93
2022-08-10T15:09:59.519Z,85.33
2022-08-10T15:13:34.506Z,84.70
2022-08-10T15:16:59.462Z,84.72
2022-08-10T15:20:37.328Z,84.58
2022-08-10T15:24:10.106Z,85.49
2022-08-10T15:27:34.198Z,84.85
2022-08-10T15:31:12.181Z,84.99
2022-08-10T15:34:56.176Z,84.94
2022-08-10T15:38:20.181Z,85.53
2022-08-10T15:41:59.230Z,84.56
2022-08-10T15:45:32.198Z,85.08
2022-08-10T15:49:26.150Z,84.87
2022-08-10T15:53:01.015Z,85.25
2022-08-10T15:56:34.133Z,84.35
2022-08-10T16:00:20.181Z,81.69
2022-08-10T16:04:15.204Z,78.72
2022-08-10T16:08:08.159Z,78.73
2022-08-10T16:11:37.860Z,75.81
2022-08-10T16:15:07.994Z,74.71
2022-08-10T16:18:27.001Z,73.67
2022-08-10T16:21:45.169Z,73.26
2022-08-10T16:25:08.191Z,73.91
2022-08-10T16:28:33.205Z,72.41
2022-08-10T16:32:13.156Z,70.10
2022-08-10T16:35:37.220Z,71.23
2022-08-10T16:39:03.219Z,70.51
2022-08-10T16:42:39.605Z,68.98
2022-08-10T16:46:09.155Z,69.03
2022-08-10T16:49:34.237Z,67.44
2022-08-10T16:52:59.162Z,67.64
2022-08-10T16:56:24.200Z,68.21
2022-08-10T16:59:54.190Z,70.12
2022-08-10T17:04:04.763Z,69.71
2022-08-10T17:07:15.194Z,70.12
2022-08-10T17:10:39.252Z,68.42
2022-08-10T17:14:03.147Z,68.94
2022-08-10T17:17:37.266Z,68.86
2022-08-10T17:20:54.796Z,69.67
2022-08-10T17:24:15.188Z,69.82
2022-08-10T17:28:05.413Z,71.72
2022-08-10T17:31:54.188Z,69.87
2022-08-10T17:35:16.121Z,69.04
2022-08-10T17:38:44.243Z,67.98
2022-08-10T17:42:10.187Z,67.68
2022-08-10T17:45:49.124Z,64.64
2022-08-10T17:49:13.187Z,62.00
2022-08-10T17:52:38.232Z,62.26
2022-08-10T17:56:03.247Z,62.36
2022-08-10T17:59:27.225Z,62.12
2022-08-10T18:02:55.262Z,60.81
2022-08-10T18:06:21.234Z,55.32
2022-08-10T18:09:52.296Z,56.30
2022-08-10T18:13:16.206Z,56.47
2022-08-10T18:16:44.188Z,53.82
2022-08-10T18:20:14.237Z,55.58
2022-08-10T18:23:36.941Z,57.39
2022-08-10T18:26:58.227Z,57.22
2022-08-10T18:30:22.244Z,58.68
2022-08-10T18:33:48.219Z,63.03
2022-08-10T18:37:16.776Z,63.55
2022-08-10T18:40:43.270Z,64.70
2022-08-10T18:44:31.226Z,68.05
2022-08-10T18:48:33.254Z,71.00
2022-08-10T18:51:59.214Z,73.89
2022-08-10T18:55:27.315Z,75.38
2022-08-10T18:59:13.223Z,76.58
2022-08-10T19:02:59.246Z,77.02
2022-08-10T19:06:48.241Z,77.95
2022-08-10T19:10:32.264Z,78.29
2022-08-10T19:14:23.203Z,78.44
2022-08-10T19:18:07.034Z,78.54
2022-08-10T19:21:59.316Z,78.30
2022-08-10T19:26:38.204Z,75.87
2022-08-10T19:30:10.269Z,75.35
2022-08-10T19:33:41.242Z,75.88
2022-08-10T19:38:00.527Z,75.39
2022-08-10T19:41:44.878Z,74.85
2022-08-10T19:46:00.677Z,73.21
2022-08-10T19:49:23.270Z,73.59
2022-08-10T19:53:05.247Z,74.66
2022-08-10T19:56:41.226Z,75.67
2022-08-10T20:00:28.598Z,76.53
2022-08-10T20:04:06.237Z,74.22
2022-08-10T20:07:58.250Z,74.25
2022-08-10T20:11:45.645Z,73.02
2022-08-10T20:15:31.257Z,71.32
2022-08-10T20:19:27.220Z,69.44
2022-08-10T20:23:33.288Z,70.78
2022-08-10T20:27:18.044Z,70.06
2022-08-10T20:30:42.265Z,68.57
2022-08-10T20:34:13.300Z,67.74
2022-08-10T20:38:03.819Z,69.03
2022-08-10T20:41:29.249Z,69.26
2022-08-10T20:44:57.233Z,65.55
2022-08-10T20:48:48.291Z,62.19
2022-08-10T20:52:12.278Z,60.61
2022-08-10T20:55:47.819Z,60.18
2022-08-10T20:59:18.284Z,58.52
2022-08-10T21:02:47.826Z,57.86
2022-08-10T21:06:43.798Z,59.27
2022-08-10T21:10:31.317Z,57.51
2022-08-10T21:14:18.226Z,56.11
2022-08-10T21:18:08.373Z,54.68
2022-08-10T21:21:59.230Z,55.40
2022-08-10T21:25:29.696Z,53.91
2022-08-10T21:28:50.594Z,54.32
2022-08-10T21:32:28.280Z,54.12
2022-08-10T21:36:32.249Z,53.87
2022-08-10T21:40:35.383Z,52.18
2022-08-10T21:44:33.300Z,50.89
2022-08-10T21:48:30.437Z,51.70
2022-08-10T21:52:24.277Z,50.92
2022-08-10T21:56:37.334Z,50.54
2022-08-10T22:00:29.639Z,49.45
2022-08-10T22:04:14.287Z,49.06
2022-08-10T22:08:03.258Z,49.09
2022-08-10T22:11:50.254Z,49.57
2022-08-10T22:16:10.819Z,49.05
2022-08-10T22:19:46.288Z,49.65
2022-08-10T22:24:18.834Z,49.44
2022-08-10T22:28:12.335Z,47.80
2022-08-10T22:32:08.298Z,47.78
2022-08-10T22:36:11.303Z,49.48
2022-08-10T22:40:29.358Z,49.02
2022-08-10T22:44:11.303Z,46.63
2022-08-10T22:47:53.340Z,47.83
2022-08-10T22:51:36.285Z,47.22
2022-08-10T22:55:25.299Z,46.98
2022-08-10T22:58:49.301Z,46.85
2022-08-10T23:02:21.320Z,47.56
2022-08-10T23:05:54.042Z,45.88
2022-08-10T23:09:19.346Z,45.59
2022-08-10T23:12:50.290Z,45.83
2022-08-10T23:16:36.303Z,44.98
2022-08-10T23:20:02.283Z,43.75
2022-08-10T23:23:36.378Z,44.64
2022-08-10T23:27:00.321Z,43.78
2022-08-10T23:30:51.593Z,46.25
2022-08-10T23:34:09.925Z,48.14
2022-08-10T23:37:28.294Z,46.18
2022-08-10T23:40:53.323Z,46.20
2022-08-10T23:44:20.982Z,44.52
2022-08-10T23:47:45.333Z,45.01
2022-08-10T23:51:16.335Z,43.67
2022-08-10T23:54:41.335Z,43.94
2022-08-10T23:58:09.309Z,43.82
